Time;durP1;ratioP1;P1;durP2;ratioP2;P2;SDS_P1;SDS_P2;PMS_P1;PMS_P2;Temp;Humidity;BMP_temperature;BMP_pressure;BME280_temperature;BME280_humidity;BME280_pressure;Samples;Min_cycle;Max_cycle;Signal;HPM_P1;HPM_P2
2021/06/05 00:02:15;;;;;;;20.95;12.95;;;23.40;75.60;;;;;;4952529;28;20063;-90
2021/06/05 00:04:40;;;;;;;23.05;12.38;;;23.40;75.40;;;;;;4952513;28;20031;-89
2021/06/05 00:07:06;;;;;;;21.00;12.23;;;23.40;75.50;;;;;;4941694;28;20031;-89
2021/06/05 00:09:32;;;;;;;19.52;11.50;;;23.40;75.50;;;;;;4948589;28;20125;-90
2021/06/05 00:11:57;;;;;;;19.77;11.80;;;23.40;75.50;;;;;;4942843;28;20031;-89
2021/06/05 00:14:23;;;;;;;20.90;11.68;;;23.40;75.50;;;;;;4973598;28;20082;-89
2021/06/05 00:16:49;;;;;;;19.90;11.98;;;23.40;75.50;;;;;;4961081;28;20054;-88
2021/06/05 00:19:17;;;;;;;19.10;11.20;;;23.40;75.60;;;;;;4940160;29;20477;-89
2021/06/05 00:21:44;;;;;;;18.60;10.80;;;23.40;75.60;;;;;;4936962;29;20055;-91
2021/06/05 00:24:11;;;;;;;18.33;10.73;;;23.30;75.60;;;;;;4965413;28;20517;-89
2021/06/05 00:26:36;;;;;;;19.40;11.25;;;23.30;75.50;;;;;;4952382;28;20114;-90
2021/06/05 00:29:03;;;;;;;18.70;10.80;;;23.30;75.60;;;;;;4949294;29;20952;-91
2021/06/05 00:31:29;;;;;;;17.92;10.23;;;23.30;75.60;;;;;;4965545;28;20794;-90
2021/06/05 00:33:56;;;;;;;17.95;10.50;;;23.30;75.60;;;;;;4939681;28;20506;-88
2021/06/05 00:36:23;;;;;;;20.30;11.77;;;23.30;75.60;;;;;;4941411;28;20034;-90
2021/06/05 00:38:49;;;;;;;17.80;10.27;;;23.30;75.30;;;;;;4957310;28;20058;-90
2021/06/05 00:41:17;;;;;;;17.77;10.25;;;23.30;75.30;;;;;;4941573;28;20039;-90
2021/06/05 00:43:45;;;;;;;19.80;10.50;;;23.30;75.20;;;;;;4968099;28;20050;-87
2021/06/05 00:46:12;;;;;;;19.58;11.07;;;23.30;75.30;;;;;;4939128;29;20035;-89
2021/06/05 00:48:38;;;;;;;18.65;10.70;;;23.30;75.30;;;;;;4933370;28;20070;-90
2021/06/05 00:51:04;;;;;;;18.70;11.35;;;23.30;75.30;;;;;;4945731;29;20027;-88
2021/06/05 00:53:30;;;;;;;19.70;10.80;;;23.20;75.40;;;;;;4936150;28;20031;-88
2021/06/05 00:55:58;;;;;;;16.90;10.48;;;23.20;75.50;;;;;;4932664;29;20035;-90
2021/06/05 00:58:27;;;;;;;17.65;10.35;;;23.20;75.50;;;;;;4953979;28;20121;-89
2021/06/05 01:01:05;;;;;;;17.50;9.90;;;23.10;75.50;;;;;;4941340;29;20035;-90
2021/06/05 01:03:37;;;;;;;17.70;10.30;;;23.10;75.40;;;;;;4935710;28;20606;-90
2021/06/05 01:06:18;;;;;;;17.17;9.93;;;23.00;76.20;;;;;;4940747;28;20380;-90
2021/06/05 01:09:25;;;;;;;19.08;10.32;;;23.00;75.60;;;;;;4950748;28;20023;-91
2021/06/05 01:12:00;;;;;;;17.45;9.80;;;23.00;75.50;;;;;;4951557;28;20029;-91
2021/06/05 01:14:40;;;;;;;17.92;9.73;;;23.00;75.60;;;;;;4942342;29;20031;-91
2021/06/05 01:17:11;;;;;;;18.70;9.50;;;23.00;75.60;;;;;;4944377;28;20446;-90
2021/06/05 01:19:58;;;;;;;18.17;10.93;;;22.90;76.30;;;;;;4956659;28;20018;-90
2021/06/05 01:23:08;;;;;;;17.80;10.15;;;22.90;75.60;;;;;;4941854;29;20517;-91
2021/06/05 01:25:52;;;;;;;16.88;9.70;;;22.90;75.60;;;;;;4949416;28;20039;-89
2021/06/05 01:28:28;;;;;;;16.80;9.55;;;22.90;75.60;;;;;;4971761;28;20047;-88
2021/06/05 01:30:58;;;;;;;18.92;10.10;;;22.90;75.60;;;;;;4963094;28;20054;-90
2021/06/05 01:33:26;;;;;;;19.75;10.93;;;22.80;75.50;;;;;;4952517;28;20122;-90
2021/06/05 01:35:52;;;;;;;17.52;9.43;;;22.90;75.60;;;;;;4945274;28;20122;-90
2021/06/05 01:38:21;;;;;;;16.23;9.00;;;22.80;75.40;;;;;;4936476;29;20128;-90
2021/06/05 01:40:49;;;;;;;17.80;9.70;;;22.90;75.40;;;;;;4950001;29;20082;-91
2021/06/05 01:43:18;;;;;;;16.10;9.70;;;22.90;75.40;;;;;;4933046;29;20039;-91
2021/06/05 01:45:45;;;;;;;16.50;9.52;;;22.90;75.40;;;;;;4950012;28;20033;-90
2021/06/05 01:48:12;;;;;;;17.08;9.73;;;22.90;75.50;;;;;;4966114;29;20055;-89
2021/06/05 01:50:40;;;;;;;17.70;10.90;;;22.90;75.40;;;;;;4978318;28;20037;-90
2021/06/05 01:53:14;;;;;;;18.27;10.47;;;22.80;75.40;;;;;;4967654;28;20023;-90
2021/06/05 01:55:54;;;;;;;17.50;10.65;;;22.90;75.50;;;;;;4950767;28;20298;-90
2021/06/05 01:58:25;;;;;;;19.33;12.65;;;22.80;75.60;;;;;;4955384;28;20035;-90
2021/06/05 02:00:53;;;;;;;19.25;12.70;;;22.80;75.60;;;;;;4952511;28;20035;-90
2021/06/05 02:03:21;;;;;;;22.02;12.13;;;22.90;75.80;;;;;;4969805;28;20042;-90
2021/06/05 02:05:47;;;;;;;19.65;13.45;;;22.80;76.00;;;;;;4963017;28;20026;-88
2021/06/05 02:08:16;;;;;;;21.83;14.73;;;22.80;76.10;;;;;;4971905;29;20094;-89
2021/06/05 02:10:42;;;;;;;21.45;13.40;;;22.80;76.30;;;;;;4955628;29;20054;-89
2021/06/05 02:13:15;;;;;;;21.00;14.23;;;22.70;76.50;;;;;;4981065;28;20027;-90
2021/06/05 02:15:53;;;;;;;20.48;14.35;;;22.70;76.60;;;;;;4974570;28;20106;-90
2021/06/05 02:18:26;;;;;;;19.02;13.70;;;22.70;76.50;;;;;;4957929;28;20077;-90
2021/06/05 02:21:10;;;;;;;19.88;13.00;;;22.70;77.40;;;;;;4943201;29;20098;-90
2021/06/05 02:23:57;;;;;;;21.73;13.75;;;22.70;76.80;;;;;;4943178;29;20031;-91
2021/06/05 02:26:24;;;;;;;21.00;14.68;;;22.60;76.80;;;;;;4941591;29;20023;-90
2021/06/05 02:28:54;;;;;;;22.65;14.60;;;22.60;76.90;;;;;;4948481;29;20038;-89
2021/06/05 02:31:20;;;;;;;22.25;13.45;;;22.60;77.10;;;;;;4957349;29;20090;-89
2021/06/05 02:33:47;;;;;;;22.42;13.57;;;22.60;77.20;;;;;;4943684;28;20938;-91
2021/06/05 02:36:13;;;;;;;21.02;14.13;;;22.50;77.30;;;;;;4943775;28;20031;-91
2021/06/05 02:38:46;;;;;;;21.13;14.40;;;22.50;77.40;;;;;;4949617;28;20026;-90
2021/06/05 02:41:15;;;;;;;20.60;13.73;;;22.50;77.50;;;;;;4954147;28;20038;-91
2021/06/05 02:43:43;;;;;;;21.58;14.25;;;22.50;77.50;;;;;;4942467;29;20039;-90
2021/06/05 02:46:16;;;;;;;19.13;14.55;;;22.50;77.60;;;;;;4942666;28;20031;-91
2021/06/05 02:48:56;;;;;;;24.73;14.40;;;22.50;77.60;;;;;;4935462;29;20035;-91
2021/06/05 02:51:27;;;;;;;18.23;13.35;;;22.50;77.80;;;;;;4963758;28;20296;-89
2021/06/05 02:53:53;;;;;;;21.38;14.32;;;22.50;77.70;;;;;;4952565;28;20103;-91
2021/06/05 02:56:20;;;;;;;20.45;14.23;;;22.40;78.50;;;;;;4952793;28;20133;-90
2021/06/05 02:58:46;;;;;;;19.60;14.57;;;22.40;77.90;;;;;;4952490;28;20443;-90
2021/06/05 03:01:12;;;;;;;19.88;14.25;;;22.40;77.90;;;;;;4951958;28;20031;-90
2021/06/05 03:03:39;;;;;;;19.60;14.13;;;22.40;78.00;;;;;;4950294;28;20026;-90
2021/06/05 03:06:05;;;;;;;22.30;15.07;;;22.40;78.20;;;;;;4967013;28;20047;-90
2021/06/05 03:08:34;;;;;;;20.42;14.80;;;22.40;78.50;;;;;;4955608;28;20589;-91
2021/06/05 03:11:06;;;;;;;24.08;15.25;;;22.30;78.70;;;;;;4968242;28;20035;-91
2021/06/05 03:13:31;;;;;;;22.35;15.07;;;22.30;78.90;;;;;;4950192;28;20057;-91
2021/06/05 03:15:57;;;;;;;22.00;15.15;;;22.20;79.00;;;;;;4965288;28;20506;-89
2021/06/05 03:18:24;;;;;;;21.55;14.38;;;22.10;79.20;;;;;;4941303;28;20558;-91
2021/06/05 03:20:52;;;;;;;19.95;13.90;;;22.10;79.40;;;;;;4941561;28;20051;-89
2021/06/05 03:23:21;;;;;;;21.73;13.68;;;22.10;79.60;;;;;;4950357;28;20030;-90
2021/06/05 03:25:46;;;;;;;19.02;13.50;;;22.10;79.70;;;;;;4949500;28;20035;-90
2021/06/05 03:28:14;;;;;;;19.35;13.65;;;22.10;79.80;;;;;;4941405;28;20042;-90
2021/06/05 03:30:40;;;;;;;18.58;13.55;;;22.00;79.90;;;;;;4965656;28;20150;-90
2021/06/05 03:33:06;;;;;;;20.13;13.65;;;22.00;80.10;;;;;;4949834;28;20035;-91
2021/06/05 03:35:33;;;;;;;19.77;12.85;;;22.00;80.40;;;;;;4959243;28;20034;-88
2021/06/05 03:37:59;;;;;;;18.30;12.70;;;22.00;80.50;;;;;;4938169;28;20122;-90
2021/06/05 03:40:28;;;;;;;20.63;14.05;;;22.00;80.60;;;;;;4937363;28;20396;-90
2021/06/05 03:42:54;;;;;;;18.83;12.88;;;21.90;80.70;;;;;;4945563;28;20090;-90
2021/06/05 03:45:21;;;;;;;20.27;13.00;;;21.90;80.90;;;;;;4948960;28;20031;-90
2021/06/05 03:47:46;;;;;;;20.02;12.85;;;21.90;81.00;;;;;;4961539;28;20031;-89
2021/06/05 03:50:15;;;;;;;19.77;13.25;;;21.80;81.00;;;;;;4943448;28;20039;-91
2021/06/05 03:52:40;;;;;;;19.75;12.77;;;21.80;81.10;;;;;;4942847;28;20078;-90
2021/06/05 03:55:09;;;;;;;19.42;13.80;;;21.80;81.20;;;;;;4947222;28;20518;-90
2021/06/05 03:57:36;;;;;;;20.90;12.88;;;21.80;81.40;;;;;;4964635;28;20045;-90
2021/06/05 04:00:10;;;;;;;20.13;13.38;;;21.80;81.40;;;;;;4949047;28;20066;-90
2021/06/05 04:02:35;;;;;;;20.95;14.80;;;21.70;81.40;;;;;;4948775;28;20030;-90
2021/06/05 04:05:01;;;;;;;21.17;14.15;;;21.70;81.40;;;;;;4956810;28;20386;-91
2021/06/05 04:07:26;;;;;;;20.55;13.75;;;21.80;81.60;;;;;;4940714;28;20485;-90
2021/06/05 04:09:52;;;;;;;22.83;14.75;;;21.70;81.50;;;;;;4966058;28;20031;-90
2021/06/05 04:12:17;;;;;;;21.92;14.50;;;21.70;81.70;;;;;;4965519;28;20050;-89
2021/06/05 04:14:43;;;;;;;24.20;15.27;;;21.70;81.90;;;;;;4966558;28;20496;-91
2021/06/05 04:17:13;;;;;;;21.60;14.88;;;21.60;81.90;;;;;;4940380;28;20491;-90
2021/06/05 04:19:39;;;;;;;22.23;15.13;;;21.60;81.90;;;;;;4941880;28;20031;-90
2021/06/05 04:22:07;;;;;;;23.40;15.38;;;21.60;82.10;;;;;;4944667;28;20046;-90
2021/06/05 04:24:34;;;;;;;23.45;15.43;;;21.50;82.10;;;;;;4940014;28;20117;-89
2021/06/05 04:27:00;;;;;;;22.30;15.75;;;21.50;82.20;;;;;;4939606;28;20033;-90
2021/06/05 04:29:26;;;;;;;22.23;15.45;;;21.50;82.20;;;;;;4944077;28;20027;-90
2021/06/05 04:31:52;;;;;;;22.92;15.23;;;21.60;82.20;;;;;;4943258;28;20066;-90
2021/06/05 04:34:17;;;;;;;22.02;16.05;;;21.60;82.10;;;;;;4947052;28;20094;-90
2021/06/05 04:36:43;;;;;;;23.27;15.57;;;21.60;82.10;;;;;;4945916;28;20506;-90
2021/06/05 04:39:09;;;;;;;23.38;15.43;;;21.60;82.10;;;;;;4954590;28;20144;-89
2021/06/05 04:41:34;;;;;;;24.00;16.08;;;21.60;82.10;;;;;;4959740;28;20030;-89
2021/06/05 04:44:00;;;;;;;24.52;16.27;;;21.60;82.10;;;;;;4941667;28;20125;-90
2021/06/05 04:46:26;;;;;;;23.38;16.70;;;21.60;82.10;;;;;;4962277;28;20031;-91
2021/06/05 04:48:52;;;;;;;23.35;15.65;;;21.60;82.10;;;;;;4943936;28;20026;-90
2021/06/05 04:51:21;;;;;;;23.17;15.65;;;21.60;82.00;;;;;;4966216;28;20023;-90
2021/06/05 04:53:46;;;;;;;;;;;21.70;82.20;;;;;;4942060;28;20691;-90
2021/06/05 04:56:12;;;;;;;22.83;15.77;;;21.60;82.00;;;;;;4940677;28;20468;-90
2021/06/05 04:58:38;;;;;;;26.02;18.00;;;21.60;82.10;;;;;;4943472;28;20034;-89
2021/06/05 05:01:04;;;;;;;24.73;17.85;;;21.60;82.50;;;;;;4941763;28;20447;-89
2021/06/05 05:03:31;;;;;;;24.27;17.70;;;21.60;82.30;;;;;;4939802;28;20055;-89
2021/06/05 05:06:01;;;;;;;23.42;17.08;;;21.50;82.40;;;;;;4944825;28;20035;-89
2021/06/05 05:08:28;;;;;;;24.45;17.70;;;21.50;82.50;;;;;;4941591;28;20030;-90
2021/06/05 05:10:55;;;;;;;23.75;18.60;;;21.60;82.60;;;;;;4939434;28;20033;-88
2021/06/05 05:13:26;;;;;;;24.13;18.13;;;21.60;82.50;;;;;;4943665;28;20146;-90
2021/06/05 05:15:53;;;;;;;28.80;19.92;;;21.60;82.50;;;;;;4967917;28;20038;-90
2021/06/05 05:18:19;;;;;;;28.75;19.67;;;21.60;82.60;;;;;;4947399;28;20030;-90
2021/06/05 05:20:46;;;;;;;27.63;20.13;;;21.70;82.50;;;;;;4966481;28;20521;-90
2021/06/05 05:23:13;;;;;;;25.30;19.63;;;21.60;82.50;;;;;;4939160;28;20058;-90
2021/06/05 05:25:40;;;;;;;28.05;19.85;;;21.60;82.60;;;;;;4945932;28;20031;-90
2021/06/05 05:28:07;;;;;;;26.45;19.33;;;21.60;82.70;;;;;;4938716;29;20701;-91
2021/06/05 05:30:39;;;;;;;25.95;19.30;;;21.60;82.70;;;;;;4966885;28;20027;-90
2021/06/05 05:33:05;;;;;;;26.75;19.92;;;21.60;82.70;;;;;;4946293;28;20131;-89
2021/06/05 05:35:33;;;;;;;25.85;20.58;;;21.60;82.70;;;;;;4942540;28;20734;-90
2021/06/05 05:38:00;;;;;;;24.73;19.20;;;21.60;82.80;;;;;;4947406;28;20031;-89
2021/06/05 05:40:27;;;;;;;25.70;19.15;;;21.60;83.40;;;;;;4945595;28;20027;-91
2021/06/05 05:42:54;;;;;;;27.60;20.08;;;21.60;82.80;;;;;;4953530;28;20496;-90
2021/06/05 05:45:21;;;;;;;25.25;19.40;;;21.60;82.90;;;;;;4950949;28;20074;-90
2021/06/05 05:47:47;;;;;;;31.52;20.73;;;21.60;82.80;;;;;;4949998;28;20491;-90
2021/06/05 05:50:14;;;;;;;26.75;20.13;;;21.70;82.80;;;;;;4972152;28;20039;-90
2021/06/05 05:52:40;;;;;;;28.83;20.23;;;21.70;82.70;;;;;;4950878;28;20035;-90
2021/06/05 05:55:07;;;;;;;27.17;20.95;;;21.60;82.70;;;;;;4943847;28;20762;-90
2021/06/05 05:57:33;;;;;;;25.40;19.15;;;21.70;82.70;;;;;;4948826;28;20614;-89
2021/06/05 05:59:59;;;;;;;25.48;19.63;;;21.70;82.70;;;;;;4942309;28;20034;-90
2021/06/05 06:02:25;;;;;;;27.35;21.13;;;21.70;82.70;;;;;;4967329;28;20462;-89
2021/06/05 06:04:50;;;;;;;27.45;21.75;;;21.80;82.60;;;;;;4945585;28;20031;-90
2021/06/05 06:07:16;;;;;;;28.75;22.27;;;21.80;82.60;;;;;;4966323;28;20023;-89
2021/06/05 06:09:41;;;;;;;32.33;24.55;;;21.80;82.70;;;;;;4969216;28;20035;-89
2021/06/05 06:12:08;;;;;;;31.65;24.85;;;21.80;83.00;;;;;;4946895;28;20066;-91
2021/06/05 06:14:34;;;;;;;31.92;24.73;;;21.90;82.90;;;;;;4953077;28;20036;-90
2021/06/05 06:17:00;;;;;;;30.55;24.58;;;21.90;82.80;;;;;;4947794;28;20749;-91
2021/06/05 06:19:25;;;;;;;32.42;25.88;;;21.90;82.80;;;;;;4970880;28;20046;-89
2021/06/05 06:21:52;;;;;;;32.65;26.30;;;21.90;82.90;;;;;;4970779;28;20469;-90
2021/06/05 06:24:17;;;;;;;34.17;27.38;;;21.90;83.00;;;;;;4960590;28;20296;-90
2021/06/05 06:26:43;;;;;;;31.52;24.70;;;21.90;83.10;;;;;;4944849;28;20031;-90
2021/06/05 06:29:15;;;;;;;31.73;27.00;;;21.90;83.10;;;;;;4950884;28;20526;-90
2021/06/05 06:31:42;;;;;;;35.75;28.67;;;21.90;83.10;;;;;;4952485;28;20449;-90
2021/06/05 06:34:07;;;;;;;35.85;30.67;;;22.00;83.00;;;;;;4949957;28;20053;-87
2021/06/05 06:36:35;;;;;;;39.60;30.17;;;22.10;83.10;;;;;;4966913;28;20526;-90
2021/06/05 06:39:00;;;;;;;37.67;31.23;;;22.10;83.10;;;;;;4967286;28;20031;-90
2021/06/05 06:41:29;;;;;;;37.80;30.10;;;22.00;83.00;;;;;;4969201;28;20383;-89
2021/06/05 06:43:56;;;;;;;38.75;31.63;;;22.00;83.20;;;;;;4958386;28;20027;-90
2021/06/05 06:46:27;;;;;;;40.72;30.65;;;21.90;83.30;;;;;;4951687;28;20418;-90
2021/06/05 06:48:55;;;;;;;36.63;29.75;;;21.90;83.40;;;;;;4951620;28;20030;-89
2021/06/05 06:51:22;;;;;;;38.30;30.17;;;21.90;83.40;;;;;;4957760;28;20057;-91
2021/06/05 06:53:47;;;;;;;38.70;30.17;;;22.00;83.30;;;;;;4972908;28;20022;-90
2021/06/05 06:56:13;;;;;;;35.63;29.35;;;21.90;83.30;;;;;;4947197;28;20429;-91
2021/06/05 06:58:39;;;;;;;35.97;29.35;;;22.00;83.30;;;;;;4970605;28;20042;-91
2021/06/05 07:01:06;;;;;;;36.13;29.65;;;21.90;83.20;;;;;;4948115;28;20113;-91
2021/06/05 07:03:32;;;;;;;35.05;29.13;;;21.90;83.30;;;;;;4947159;29;20362;-90
2021/06/05 07:05:58;;;;;;;36.63;29.52;;;22.00;83.40;;;;;;4943072;28;20023;-90
2021/06/05 07:08:25;;;;;;;36.17;29.67;;;21.90;83.40;;;;;;4944593;28;20707;-90
2021/06/05 07:11:00;;;;;;;36.20;29.73;;;21.90;83.40;;;;;;4946589;28;20170;-90
2021/06/05 07:13:27;;;;;;;33.28;28.35;;;21.90;84.20;;;;;;4968770;28;20031;-90
2021/06/05 07:15:54;;;;;;;37.03;28.60;;;21.90;83.60;;;;;;4959440;28;20530;-91
2021/06/05 07:18:21;;;;;;;38.08;29.42;;;21.90;83.60;;;;;;4949676;28;20035;-90
2021/06/05 07:20:49;;;;;;;36.88;29.90;;;21.90;83.40;;;;;;4953383;28;20080;-91
2021/06/05 07:23:17;;;;;;;37.35;30.55;;;21.90;83.40;;;;;;4953550;28;20031;-89
2021/06/05 07:25:42;;;;;;;37.30;29.70;;;22.00;83.30;;;;;;4945577;28;20484;-92
2021/06/05 07:28:19;;;;;;;33.70;28.05;;;22.00;83.40;;;;;;4952955;28;20031;-91
2021/06/05 07:30:46;;;;;;;36.00;29.38;;;22.10;83.30;;;;;;4963074;28;20058;-91
2021/06/05 07:33:12;;;;;;;36.20;29.42;;;22.10;83.20;;;;;;4962216;28;20098;-90
2021/06/05 07:35:38;;;;;;;37.05;29.45;;;22.10;83.10;;;;;;4946036;28;20046;-90
2021/06/05 07:38:06;;;;;;;35.83;29.85;;;22.20;83.10;;;;;;4950225;28;20098;-88
2021/06/05 07:40:32;;;;;;;37.95;28.73;;;22.10;83.00;;;;;;4962274;28;20014;-90
2021/06/05 07:42:58;;;;;;;36.30;28.75;;;22.30;83.00;;;;;;4954466;28;20067;-88
2021/06/05 07:45:23;;;;;;;37.95;28.88;;;22.30;82.80;;;;;;4960376;28;20030;-89
2021/06/05 07:47:50;;;;;;;36.15;29.23;;;22.40;82.60;;;;;;4958146;28;20111;-88
2021/06/05 07:50:16;;;;;;;34.28;28.45;;;22.40;82.80;;;;;;4952898;28;20047;-89
2021/06/05 07:52:41;;;;;;;36.20;27.95;;;22.40;82.70;;;;;;4943474;28;20069;-90
2021/06/05 07:55:08;;;;;;;37.72;29.63;;;22.40;82.60;;;;;;4951488;28;20033;-89
2021/06/05 07:57:34;;;;;;;33.65;28.33;;;22.40;82.50;;;;;;4957231;28;20028;-90
2021/06/05 08:00:00;;;;;;;36.55;30.33;;;22.40;82.50;;;;;;4974679;28;20035;-91
2021/06/05 08:02:25;;;;;;;34.53;28.30;;;22.50;82.50;;;;;;4950643;28;20039;-90
2021/06/05 08:04:51;;;;;;;34.22;27.55;;;22.50;82.50;;;;;;4941507;28;20022;-91
2021/06/05 08:07:18;;;;;;;32.92;26.67;;;22.50;82.40;;;;;;4969349;28;20027;-90
2021/06/05 08:09:44;;;;;;;32.40;24.92;;;22.60;82.50;;;;;;4941745;28;20044;-90
2021/06/05 08:12:11;;;;;;;34.05;26.15;;;22.70;82.20;;;;;;4983703;28;20019;-89
2021/06/05 08:14:36;;;;;;;30.80;24.20;;;22.70;81.90;;;;;;4965981;28;20047;-90
2021/06/05 08:17:03;;;;;;;28.85;23.48;;;22.80;81.80;;;;;;4966050;28;20061;-90
2021/06/05 08:19:28;;;;;;;31.40;24.05;;;22.90;81.40;;;;;;4979389;28;20141;-89
2021/06/05 08:21:54;;;;;;;30.67;23.75;;;22.90;81.30;;;;;;4948210;28;20070;-91
2021/06/05 08:24:20;;;;;;;29.20;23.45;;;22.90;81.20;;;;;;4945577;28;20094;-92
2021/06/05 08:26:47;;;;;;;28.15;23.23;;;22.90;81.10;;;;;;4972823;28;20782;-89
2021/06/05 08:29:12;;;;;;;28.80;23.00;;;22.90;81.90;;;;;;4978046;28;20739;-90
2021/06/05 08:31:39;;;;;;;29.23;22.88;;;22.80;81.20;;;;;;4984416;28;20022;-90
2021/06/05 08:34:05;;;;;;;32.33;23.35;;;22.80;81.20;;;;;;4985192;28;20031;-90
2021/06/05 08:36:32;;;;;;;32.13;23.90;;;22.80;81.30;;;;;;4965874;28;20042;-89
2021/06/05 08:38:58;;;;;;;31.92;25.25;;;22.80;81.30;;;;;;4965790;28;20054;-87
2021/06/05 08:41:35;;;;;;;31.50;25.25;;;22.90;81.20;;;;;;4966749;28;20018;-88
2021/06/05 08:44:07;;;;;;;33.00;26.02;;;22.90;81.20;;;;;;4969324;28;20031;-87
2021/06/05 08:46:38;;;;;;;32.13;24.58;;;23.00;81.00;;;;;;4962395;28;20114;-89
2021/06/05 08:49:12;;;;;;;35.47;27.63;;;23.00;81.00;;;;;;4968304;28;20031;-88
2021/06/05 08:52:05;;;;;;;33.95;26.65;;;23.00;80.70;;;;;;4982780;28;20022;-88
2021/06/05 08:54:44;;;;;;;35.10;25.85;;;23.00;80.90;;;;;;4978662;28;20502;-90
2021/06/05 08:57:41;;;;;;;33.22;27.05;;;23.00;80.70;;;;;;4949387;28;20030;-88
2021/06/05 09:00:24;;;;;;;34.13;27.55;;;23.00;80.60;;;;;;4955018;28;20404;-91
2021/06/05 09:02:53;;;;;;;37.45;28.73;;;23.00;80.60;;;;;;4954608;28;20565;-92
2021/06/05 09:05:24;;;;;;;37.25;28.42;;;23.00;80.60;;;;;;4955899;28;20047;-90
2021/06/05 09:07:50;;;;;;;33.28;26.90;;;22.90;80.80;;;;;;4951746;28;20035;-89
2021/06/05 09:10:19;;;;;;;35.33;27.90;;;23.00;80.90;;;;;;4954802;28;20549;-90
2021/06/05 09:12:45;;;;;;;32.03;25.48;;;23.00;80.70;;;;;;4967196;28;20019;-90
2021/06/05 09:15:20;;;;;;;35.03;28.20;;;23.00;80.60;;;;;;4955017;28;20035;-89
2021/06/05 09:17:48;;;;;;;34.92;28.27;;;23.00;80.50;;;;;;4937952;29;20503;-90
2021/06/05 09:20:34;;;;;;;38.05;29.00;;;23.00;80.50;;;;;;4950719;29;20027;-90
2021/06/05 09:23:01;;;;;;;38.10;28.73;;;22.90;80.70;;;;;;4932929;29;20058;-90
2021/06/05 09:25:39;;;;;;;38.72;30.20;;;22.90;80.90;;;;;;4934585;29;20031;-89
2021/06/05 09:28:18;;;;;;;39.25;28.75;;;23.00;80.60;;;;;;4932942;29;20023;-89
2021/06/05 09:30:45;;;;;;;37.03;29.08;;;22.90;80.80;;;;;;4935153;29;20266;-90
2021/06/05 09:33:14;;;;;;;36.80;28.13;;;22.80;80.90;;;;;;4933292;29;20039;-89
2021/06/05 09:35:44;;;;;;;36.10;28.08;;;22.80;80.90;;;;;;4931414;29;20122;-90
2021/06/05 09:38:25;;;;;;;35.72;28.15;;;22.80;81.10;;;;;;4934345;29;20042;-90
2021/06/05 09:41:08;;;;;;;35.08;27.63;;;22.80;81.20;;;;;;4933645;29;20038;-89
2021/06/05 09:43:35;;;;;;;35.72;27.23;;;22.70;81.00;;;;;;4942303;29;20115;-90
2021/06/05 09:46:04;;;;;;;36.65;28.85;;;22.70;81.10;;;;;;4950534;29;20493;-88
2021/06/05 09:48:36;;;;;;;38.88;28.45;;;22.80;81.10;;;;;;4932905;29;20054;-89
2021/06/05 09:51:26;;;;;;;36.50;28.55;;;22.80;80.80;;;;;;4932144;29;20554;-91
2021/06/05 09:54:08;;;;;;;34.60;25.92;;;22.90;80.70;;;;;;4949697;29;20047;-88
2021/06/05 09:56:40;;;;;;;33.45;24.83;;;23.00;80.70;;;;;;4950038;29;20066;-90
2021/06/05 09:59:16;;;;;;;34.72;26.17;;;23.00;81.30;;;;;;4925116;29;20030;-90
2021/06/05 10:02:00;;;;;;;33.70;25.50;;;23.20;80.50;;;;;;4931685;29;20042;-88
2021/06/05 10:04:29;;;;;;;32.03;25.45;;;23.30;80.20;;;;;;4933694;29;20130;-90
2021/06/05 10:06:57;;;;;;;33.50;25.17;;;23.40;79.60;;;;;;4934995;29;20046;-90
2021/06/05 10:09:25;;;;;;;35.47;25.75;;;23.50;79.30;;;;;;4931773;29;20035;-90
2021/06/05 10:12:09;;;;;;;31.08;24.17;;;23.70;79.00;;;;;;4932516;29;20370;-91
2021/06/05 10:14:38;;;;;;;37.22;26.25;;;23.80;78.60;;;;;;4932890;29;20098;-89
2021/06/05 10:17:24;;;;;;;;;;;23.90;78.00;;;;;;4933486;29;20501;-90
2021/06/05 10:19:54;;;;;;;31.30;23.92;;;24.00;78.20;;;;;;4904837;29;19934;-89
2021/06/05 10:22:24;;;;;;;33.47;24.40;;;24.10;77.90;;;;;;4948281;28;20054;-90
2021/06/05 10:25:04;;;;;;;30.52;21.77;;;24.20;78.50;;;;;;4952548;28;20027;-89
2021/06/05 10:27:37;;;;;;;29.10;22.73;;;24.20;77.60;;;;;;4972709;28;20089;-90
2021/06/05 10:30:30;;;;;;;32.47;23.48;;;24.30;77.20;;;;;;4948934;28;20034;-90
2021/06/05 10:32:58;;;;;;;28.05;21.67;;;24.30;76.70;;;;;;4963755;28;20039;-91
2021/06/05 10:35:36;;;;;;;31.27;21.73;;;24.40;76.50;;;;;;4970578;28;20054;-88
2021/06/05 10:38:18;;;;;;;28.77;21.05;;;24.50;76.20;;;;;;4959733;28;20038;-90
2021/06/05 10:40:49;;;;;;;30.25;20.45;;;24.60;75.90;;;;;;4957379;28;20034;-89
2021/06/05 10:43:15;;;;;;;29.40;21.58;;;24.60;75.70;;;;;;4955544;28;20039;-90
2021/06/05 10:45:44;;;;;;;30.17;21.30;;;24.50;75.60;;;;;;4956385;28;20031;-89
2021/06/05 10:48:13;;;;;;;28.48;20.42;;;24.50;75.40;;;;;;4957121;28;20061;-90
2021/06/05 10:50:42;;;;;;;;;;;24.50;75.40;;;;;;4970722;28;20026;-90
2021/06/05 10:53:10;;;;;;;28.48;20.55;;;24.40;75.80;;;;;;4964544;28;19977;-90
2021/06/05 10:55:44;;;;;;;31.33;22.88;;;24.30;76.00;;;;;;4954501;28;20462;-89
2021/06/05 10:58:18;;;;;;;31.50;21.77;;;24.30;76.20;;;;;;4965256;28;20793;-90
2021/06/05 11:00:46;;;;;;;29.75;22.10;;;24.20;76.10;;;;;;4975007;28;20035;-88
2021/06/05 11:03:27;;;;;;;27.30;20.13;;;24.20;76.40;;;;;;4956121;28;20046;-89
2021/06/05 11:06:06;;;;;;;29.20;20.73;;;24.20;76.40;;;;;;4953288;28;20933;-90
2021/06/05 11:08:49;;;;;;;28.83;19.98;;;24.20;77.10;;;;;;4955571;28;20026;-88
2021/06/05 11:11:44;;;;;;;28.17;20.83;;;24.20;76.50;;;;;;4949398;28;20027;-88
2021/06/05 11:14:35;;;;;;;31.50;20.75;;;24.30;75.70;;;;;;4952453;28;20042;-89
2021/06/05 11:17:05;;;;;;;29.42;19.85;;;24.30;76.20;;;;;;4953162;28;20058;-89
2021/06/05 11:19:51;;;;;;;28.25;21.52;;;24.50;76.20;;;;;;4958638;28;20026;-90
2021/06/05 11:22:23;;;;;;;28.60;20.20;;;24.60;74.90;;;;;;4939682;29;20134;-90
2021/06/05 11:25:29;;;;;;;28.52;20.65;;;24.60;75.80;;;;;;4938231;29;20031;-89
2021/06/05 11:27:55;;;;;;;28.75;19.67;;;24.70;74.10;;;;;;4876854;29;20043;-89
2021/06/05 11:30:20;;;;;;;25.77;18.17;;;24.70;74.60;;;;;;4939255;29;20039;-90
2021/06/05 11:33:08;;;;;;;26.30;18.58;;;24.70;74.30;;;;;;4939427;28;20031;-89
2021/06/05 11:35:58;;;;;;;27.70;18.00;;;24.70;73.70;;;;;;4929827;29;20122;-89
2021/06/05 11:38:24;;;;;;;27.95;19.75;;;24.70;73.80;;;;;;4928138;29;20040;-91
2021/06/05 11:41:05;;;;;;;28.20;19.20;;;24.70;74.00;;;;;;4955473;29;20061;-90
2021/06/05 11:43:34;;;;;;;26.27;19.08;;;24.60;74.20;;;;;;4931443;29;20633;-89
2021/06/05 11:46:16;;;;;;;27.33;19.00;;;24.70;74.40;;;;;;4932963;29;20024;-91
2021/06/05 11:48:44;;;;;;;27.98;19.20;;;24.60;74.40;;;;;;4954782;29;20504;-90
2021/06/05 11:51:19;;;;;;;27.85;19.77;;;24.60;74.50;;;;;;4936847;29;20030;-90
2021/06/05 11:53:51;;;;;;;25.75;18.63;;;24.60;74.10;;;;;;4937254;29;20457;-90
2021/06/05 11:56:25;;;;;;;26.92;18.92;;;24.70;74.50;;;;;;4952279;29;20031;-90
2021/06/05 11:58:52;;;;;;;26.98;19.60;;;24.60;74.60;;;;;;4938396;29;20031;-91
2021/06/05 12:01:27;;;;;;;25.73;17.25;;;24.60;74.70;;;;;;4936294;29;20042;-90
2021/06/05 12:04:08;;;;;;;24.80;16.60;;;24.70;73.90;;;;;;4955326;29;20035;-89
2021/06/05 12:06:46;;;;;;;26.73;19.40;;;24.70;74.00;;;;;;4938358;29;20038;-89
2021/06/05 12:09:22;;;;;;;28.88;20.75;;;24.80;73.60;;;;;;4938825;29;20031;-90
2021/06/05 12:12:07;;;;;;;26.77;19.92;;;24.90;73.50;;;;;;4941271;29;20031;-91
2021/06/05 12:14:46;;;;;;;28.10;20.58;;;24.90;73.70;;;;;;4956907;29;20027;-89
2021/06/05 12:17:38;;;;;;;27.10;20.45;;;24.90;73.70;;;;;;4937437;29;20102;-89
2021/06/05 12:20:06;;;;;;;31.02;20.00;;;25.00;74.40;;;;;;4938158;29;20042;-89
2021/06/05 12:22:33;;;;;;;27.20;19.27;;;25.10;72.80;;;;;;4944401;29;20402;-90
2021/06/05 12:24:59;;;;;;;27.13;18.33;;;25.20;72.70;;;;;;4951344;29;20039;-91
2021/06/05 12:27:38;;;;;;;27.80;19.73;;;25.20;72.70;;;;;;4937647;29;20039;-90
2021/06/05 12:30:21;;;;;;;26.88;19.17;;;25.40;71.30;;;;;;4939018;29;20032;-90
2021/06/05 12:33:02;;;;;;;29.85;22.02;;;25.40;72.00;;;;;;4935246;29;20491;-89
2021/06/05 12:35:33;;;;;;;27.75;20.30;;;25.40;70.50;;;;;;4938364;29;20154;-90
2021/06/05 12:37:59;;;;;;;32.05;25.00;;;25.40;72.10;;;;;;4936333;29;20023;-90
2021/06/05 12:40:42;;;;;;;36.33;26.42;;;25.40;72.10;;;;;;4936455;29;20682;-90
2021/06/05 12:43:12;;;;;;;35.30;25.30;;;25.40;72.10;;;;;;4943437;28;20050;-90
2021/06/05 12:45:38;;;;;;;34.53;25.05;;;25.30;72.40;;;;;;4943253;29;20039;-89